Time;durP1;ratioP1;P1;durP2;ratioP2;P2;SDS_P1;SDS_P2;PMS_P1;PMS_P2;Temp;Humidity;BMP_temperature;BMP_pressure;BME280_temperature;BME280_humidity;BME280_pressure;Samples;Min_cycle;Max_cycle;Signal;HPM_P1;HPM_P2
2023/03/24 00:00:59;;;;;;;1.23;0.40;;;18.10;79.60;;;;;;5044587;28;47606;-79
2023/03/24 00:03:28;;;;;;;0.60;0.22;;;18.10;79.60;;;;;;5044959;28;45184;-79
2023/03/24 00:05:57;;;;;;;1.00;0.40;;;18.10;79.60;;;;;;5045215;28;45214;-79
2023/03/24 00:08:24;;;;;;;0.30;0.28;;;18.10;79.60;;;;;;5044688;28;45325;-79
2023/03/24 00:10:52;;;;;;;1.38;0.30;;;18.10;79.50;;;;;;5044572;28;47730;-79
2023/03/24 00:13:19;;;;;;;0.28;0.28;;;18.20;79.60;;;;;;5044859;27;45067;-80
2023/03/24 00:15:47;;;;;;;0.50;0.30;;;18.10;79.40;;;;;;5044154;28;45156;-79
2023/03/24 00:18:14;;;;;;;0.30;0.15;;;18.20;79.60;;;;;;5045036;28;45260;-79
2023/03/24 00:20:41;;;;;;;0.20;0.20;;;18.20;79.60;;;;;;5044508;28;46082;-79
2023/03/24 00:23:08;;;;;;;0.47;0.30;;;18.20;79.50;;;;;;5044440;28;45418;-79
2023/03/24 00:25:35;;;;;;;0.55;0.25;;;18.20;79.80;;;;;;5044732;28;45245;-79
2023/03/24 00:28:04;;;;;;;0.50;0.30;;;18.20;79.70;;;;;;5044907;28;45641;-79
2023/03/24 00:30:32;;;;;;;0.10;0.10;;;18.20;79.70;;;;;;5044162;28;47328;-79
2023/03/24 00:33:00;;;;;;;0.20;0.20;;;18.20;79.70;;;;;;5047273;28;45363;-80
2023/03/24 00:35:28;;;;;;;0.50;0.30;;;18.20;79.60;;;;;;5044940;28;45142;-79
2023/03/24 00:37:55;;;;;;;0.20;0.20;;;18.20;79.70;;;;;;5044808;28;45433;-79
2023/03/24 00:40:22;;;;;;;0.52;0.45;;;18.20;79.80;;;;;;5044042;28;48539;-79
2023/03/24 00:42:50;;;;;;;0.20;0.20;;;18.20;79.70;;;;;;5044541;28;45180;-80
2023/03/24 00:45:21;;;;;;;0.30;0.30;;;18.10;80.60;;;;;;5044827;28;45127;-79
2023/03/24 00:47:52;;;;;;;0.77;0.20;;;18.20;79.80;;;;;;5043965;28;45595;-80
2023/03/24 00:50:25;;;;;;;0.40;0.30;;;18.10;79.60;;;;;;5044251;28;47527;-79
2023/03/24 00:52:52;;;;;;;0.20;0.20;;;18.10;79.60;;;;;;5044298;28;45276;-79
2023/03/24 00:55:20;;;;;;;0.55;0.30;;;18.10;79.60;;;;;;5044473;28;45414;-79
2023/03/24 00:57:49;;;;;;;0.47;0.40;;;18.10;79.60;;;;;;5044125;28;45586;-79
2023/03/24 01:00:19;;;;;;;0.30;0.30;;;18.10;79.70;;;;;;5043806;28;46945;-79
2023/03/24 01:02:52;;;;;;;0.50;0.30;;;18.10;79.50;;;;;;5044358;28;45289;-79
2023/03/24 01:05:19;;;;;;;0.40;0.30;;;18.10;79.70;;;;;;5044372;28;45123;-80
2023/03/24 01:07:50;;;;;;;0.30;0.30;;;18.10;79.80;;;;;;5044057;28;45458;-79
2023/03/24 01:10:20;;;;;;;0.68;0.40;;;18.10;79.90;;;;;;5044261;28;46456;-79
2023/03/24 01:12:47;;;;;;;0.65;0.28;;;18.10;79.80;;;;;;5044409;28;45257;-80
2023/03/24 01:15:18;;;;;;;0.20;0.20;;;18.10;79.80;;;;;;5043726;28;45125;-79
2023/03/24 01:17:47;;;;;;;0.40;0.30;;;18.20;79.90;;;;;;5044572;28;45153;-80
2023/03/24 01:20:15;;;;;;;0.43;0.38;;;18.20;79.90;;;;;;5043692;28;45289;-80
2023/03/24 01:22:43;;;;;;;0.30;0.30;;;18.20;79.80;;;;;;5043818;28;45066;-80
2023/03/24 01:25:14;;;;;;;0.57;0.30;;;18.20;79.80;;;;;;5047552;28;45155;-79
2023/03/24 01:27:41;;;;;;;1.38;0.22;;;18.20;79.80;;;;;;5043142;28;45424;-80
2023/03/24 01:30:11;;;;;;;0.30;0.30;;;18.20;79.80;;;;;;5043417;28;46668;-79
2023/03/24 01:32:38;;;;;;;0.40;0.30;;;18.20;79.70;;;;;;5043666;28;45333;-79
2023/03/24 01:35:07;;;;;;;0.40;0.40;;;18.20;79.80;;;;;;5043715;28;45241;-80
2023/03/24 01:37:34;;;;;;;0.30;0.30;;;18.20;79.70;;;;;;5043830;28;45125;-79
2023/03/24 01:40:06;;;;;;;0.35;0.35;;;18.20;79.70;;;;;;5043604;28;48051;-80
2023/03/24 01:42:32;;;;;;;0.40;0.30;;;18.10;79.70;;;;;;5043725;28;45216;-79
2023/03/24 01:45:02;;;;;;;0.38;0.20;;;18.10;79.70;;;;;;5043944;28;45323;-79
2023/03/24 01:47:29;;;;;;;1.00;0.40;;;18.10;79.70;;;;;;5043077;28;45242;-80
2023/03/24 01:50:01;;;;;;;0.50;0.30;;;18.10;79.60;;;;;;5043686;28;46604;-79
2023/03/24 01:52:32;;;;;;;1.17;0.30;;;18.10;79.80;;;;;;5043430;28;45297;-80
2023/03/24 01:55:04;;;;;;;0.20;0.20;;;18.10;79.80;;;;;;5043960;28;45256;-80
2023/03/24 01:57:34;;;;;;;0.45;0.30;;;18.10;79.80;;;;;;5043860;28;45261;-79
2023/03/24 02:00:06;;;;;;;0.50;0.47;;;18.10;79.80;;;;;;5043285;28;45347;-80
2023/03/24 02:02:35;;;;;;;0.60;0.40;;;18.10;79.90;;;;;;5043728;28;45589;-79
2023/03/24 02:05:04;;;;;;;0.10;0.10;;;18.10;79.90;;;;;;5043563;28;45368;-80
2023/03/24 02:07:36;;;;;;;0.43;0.30;;;18.10;79.90;;;;;;5043194;28;45206;-79
2023/03/24 02:10:06;;;;;;;0.68;0.40;;;18.10;79.80;;;;;;5043615;28;47415;-79
2023/03/24 02:12:33;;;;;;;0.30;0.30;;;18.10;79.70;;;;;;5042956;28;45278;-79
2023/03/24 02:15:01;;;;;;;0.30;0.30;;;18.20;79.80;;;;;;5044573;28;45240;-80
2023/03/24 02:17:48;;;;;;;1.05;0.30;;;18.20;79.70;;;;;;5044928;28;45518;-79
2023/03/24 02:20:48;;;;;;;0.25;0.25;;;18.20;79.60;;;;;;5043040;28;46561;-79
2023/03/24 02:23:44;;;;;;;1.33;0.47;;;18.20;79.60;;;;;;5042944;28;45225;-80
2023/03/24 02:26:37;;;;;;;0.50;0.45;;;18.20;79.60;;;;;;5043487;28;45211;-79
2023/03/24 02:29:26;;;;;;;0.22;0.22;;;18.20;79.60;;;;;;5043337;28;45646;-79
2023/03/24 02:32:41;;;;;;;0.28;0.20;;;18.20;79.50;;;;;;5042691;28;45527;-79
2023/03/24 02:35:34;;;;;;;0.40;0.30;;;18.20;79.60;;;;;;4988067;28;45405;-79
2023/03/24 02:38:31;;;;;;;0.40;0.30;;;18.10;79.60;;;;;;5043156;28;45362;-79
2023/03/24 02:41:04;;;;;;;0.30;0.30;;;18.10;79.60;;;;;;5042968;28;45244;-79
2023/03/24 02:43:42;;;;;;;0.77;0.40;;;18.10;79.60;;;;;;5045800;28;46412;-80
2023/03/24 02:46:17;;;;;;;0.40;0.28;;;18.10;79.70;;;;;;5045973;28;45279;-80
2023/03/24 02:48:58;;;;;;;0.40;0.30;;;18.10;79.70;;;;;;5045675;28;45298;-80
2023/03/24 02:51:29;;;;;;;0.70;0.30;;;18.10;79.60;;;;;;5045858;28;45294;-80
2023/03/24 02:54:06;;;;;;;0.30;0.30;;;18.10;79.70;;;;;;5042560;28;45269;-80
2023/03/24 02:56:39;;;;;;;0.60;0.40;;;18.10;79.60;;;;;;5045625;28;45223;-80
2023/03/24 02:59:09;;;;;;;0.20;0.20;;;18.10;79.50;;;;;;5045994;28;45279;-80
2023/03/24 03:01:42;;;;;;;0.38;0.38;;;18.80;80.00;;;;;;5045679;28;45470;-81
2023/03/24 03:04:12;;;;;;;0.22;0.22;;;18.10;79.10;;;;;;5045557;28;45713;-81
2023/03/24 03:06:43;;;;;;;0.70;0.38;;;18.10;78.90;;;;;;5048493;28;45203;-81
2023/03/24 03:09:12;;;;;;;0.22;0.22;;;18.10;78.50;;;;;;5046106;28;45230;-80
2023/03/24 03:11:43;;;;;;;0.40;0.40;;;18.10;78.40;;;;;;5045568;28;45390;-79
2023/03/24 03:14:12;;;;;;;0.60;0.40;;;18.10;78.40;;;;;;5045326;28;45457;-79
2023/03/24 03:16:44;;;;;;;0.40;0.40;;;18.20;78.50;;;;;;5045233;28;45161;-80
2023/03/24 03:19:16;;;;;;;0.47;0.40;;;18.10;78.50;;;;;;5045478;27;45209;-79
2023/03/24 03:21:45;;;;;;;0.60;0.32;;;18.20;78.70;;;;;;5045489;28;45100;-79
2023/03/24 03:24:18;;;;;;;0.30;0.30;;;18.20;78.70;;;;;;5045026;28;45295;-79
2023/03/24 03:26:48;;;;;;;0.30;0.30;;;18.20;78.80;;;;;;5045472;28;45445;-80
2023/03/24 03:29:20;;;;;;;0.30;0.30;;;18.20;78.90;;;;;;5045641;28;45168;-79
2023/03/24 03:31:56;;;;;;;1.20;0.60;;;18.20;78.90;;;;;;5045466;28;45355;-79
2023/03/24 03:34:30;;;;;;;0.30;0.30;;;18.20;79.00;;;;;;5045440;28;47495;-79
2023/03/24 03:37:04;;;;;;;0.40;0.40;;;18.20;79.00;;;;;;5044960;28;45304;-79
2023/03/24 03:39:34;;;;;;;0.43;0.43;;;18.20;79.00;;;;;;5045286;28;45357;-79
2023/03/24 03:42:03;;;;;;;0.55;0.40;;;18.20;79.10;;;;;;5044960;28;45136;-79
2023/03/24 03:44:31;;;;;;;0.40;0.30;;;18.20;79.10;;;;;;5045085;28;46250;-79
2023/03/24 03:46:58;;;;;;;0.65;0.40;;;18.20;79.10;;;;;;5045060;28;45251;-79
2023/03/24 03:49:25;;;;;;;0.28;0.28;;;18.20;79.10;;;;;;5044598;28;45160;-79
2023/03/24 03:51:54;;;;;;;0.22;0.22;;;18.20;79.00;;;;;;5044967;28;45267;-79
2023/03/24 03:54:22;;;;;;;0.85;0.40;;;18.20;78.90;;;;;;5045015;28;45723;-80
2023/03/24 03:56:51;;;;;;;0.47;0.40;;;18.20;79.10;;;;;;5044869;28;45218;-79
2023/03/24 03:59:27;;;;;;;0.30;0.30;;;18.20;79.00;;;;;;5048219;28;45179;-79
2023/03/24 04:01:55;;;;;;;0.95;0.45;;;18.20;79.00;;;;;;5042463;28;45227;-79
2023/03/24 04:04:42;;;;;;;1.00;0.50;;;18.20;78.90;;;;;;5045203;28;45386;-79
2023/03/24 04:07:17;;;;;;;0.30;0.30;;;18.20;78.90;;;;;;5044468;28;45890;-80
2023/03/24 04:09:54;;;;;;;1.17;0.50;;;18.20;78.80;;;;;;5045067;28;45198;-79
2023/03/24 04:12:44;;;;;;;0.43;0.30;;;18.20;78.70;;;;;;5044889;28;45054;-79
2023/03/24 04:15:38;;;;;;;0.28;0.25;;;18.20;78.60;;;;;;5044827;28;45694;-79
2023/03/24 04:18:28;;;;;;;0.43;0.32;;;18.20;78.70;;;;;;5044343;28;45962;-79
2023/03/24 04:21:06;;;;;;;0.40;0.30;;;18.20;78.70;;;;;;5044884;28;45264;-79
2023/03/24 04:23:44;;;;;;;0.20;0.20;;;18.20;78.70;;;;;;5044935;28;45402;-79
2023/03/24 04:26:24;;;;;;;0.70;0.40;;;18.30;78.90;;;;;;5044853;28;47270;-79
2023/03/24 04:29:00;;;;;;;0.52;0.40;;;18.20;78.90;;;;;;5044472;28;45362;-79
2023/03/24 04:31:32;;;;;;;0.40;0.35;;;18.20;79.00;;;;;;5041852;28;45272;-79
2023/03/24 04:34:04;;;;;;;0.40;0.38;;;18.20;79.10;;;;;;5044898;28;45373;-79
2023/03/24 04:36:41;;;;;;;0.60;0.30;;;18.20;79.10;;;;;;5044462;28;47330;-79
2023/03/24 04:39:11;;;;;;;0.70;0.40;;;18.20;79.10;;;;;;5044615;28;45226;-79
2023/03/24 04:41:37;;;;;;;0.45;0.30;;;18.20;79.10;;;;;;5044779;28;45215;-79
2023/03/24 04:44:04;;;;;;;0.32;0.30;;;18.20;79.10;;;;;;5044975;28;45390;-79
2023/03/24 04:46:33;;;;;;;0.40;0.40;;;18.20;79.10;;;;;;5044277;28;47790;-79
2023/03/24 04:49:01;;;;;;;0.45;0.35;;;18.10;79.10;;;;;;5043779;28;45362;-79
2023/03/24 04:51:28;;;;;;;0.63;0.30;;;18.10;79.00;;;;;;5047888;28;45115;-79
2023/03/24 04:53:55;;;;;;;0.30;0.30;;;18.10;79.00;;;;;;5044916;28;45054;-79
2023/03/24 04:56:36;;;;;;;0.30;0.30;;;18.20;79.10;;;;;;5044434;28;47281;-79
2023/03/24 04:59:04;;;;;;;0.25;0.25;;;18.10;78.90;;;;;;5044316;28;45111;-79
2023/03/24 05:01:30;;;;;;;0.30;0.30;;;18.20;78.90;;;;;;5044004;28;45261;-79
2023/03/24 05:03:59;;;;;;;0.30;0.30;;;18.40;78.90;;;;;;5044172;28;45533;-79
2023/03/24 05:06:26;;;;;;;0.45;0.40;;;18.20;78.70;;;;;;5044088;28;48530;-79
2023/03/24 05:08:56;;;;;;;0.50;0.40;;;18.10;78.70;;;;;;5043908;28;45783;-79
2023/03/24 05:11:23;;;;;;;1.30;0.50;;;18.10;78.70;;;;;;5043969;28;45273;-79
2023/03/24 05:13:49;;;;;;;0.38;0.22;;;18.20;78.70;;;;;;5043991;28;45210;-79
2023/03/24 05:16:16;;;;;;;0.50;0.30;;;18.20;78.70;;;;;;5043775;28;47255;-80
2023/03/24 05:18:43;;;;;;;0.40;0.40;;;18.10;78.40;;;;;;5044112;28;45345;-79
2023/03/24 05:21:12;;;;;;;0.20;0.20;;;18.20;78.40;;;;;;5044026;28;45167;-80
2023/03/24 05:23:39;;;;;;;0.20;0.20;;;18.10;77.90;;;;;;5044472;28;45254;-79
2023/03/24 05:26:06;;;;;;;0.20;0.20;;;18.10;77.80;;;;;;5044000;28;47698;-80
2023/03/24 05:28:33;;;;;;;0.20;0.20;;;18.10;77.10;;;;;;5043842;28;45376;-80
2023/03/24 05:31:00;;;;;;;0.43;0.20;;;18.10;77.00;;;;;;5044099;28;45218;-79
2023/03/24 05:33:27;;;;;;;0.30;0.30;;;18.10;76.60;;;;;;5043983;28;45305;-80
2023/03/24 05:35:54;;;;;;;0.40;0.30;;;18.10;76.60;;;;;;5043586;28;45206;-79
2023/03/24 05:38:22;;;;;;;0.55;0.20;;;18.10;76.60;;;;;;5043610;28;45193;-80
2023/03/24 05:40:49;;;;;;;0.30;0.30;;;18.10;76.30;;;;;;5044109;28;45102;-79
2023/03/24 05:43:16;;;;;;;0.10;0.10;;;18.10;76.50;;;;;;5046396;28;45085;-79
2023/03/24 05:45:44;;;;;;;0.13;0.13;;;18.10;75.70;;;;;;5043635;28;46615;-79
2023/03/24 05:48:10;;;;;;;1.80;0.20;;;18.10;75.60;;;;;;5043072;28;45857;-78
2023/03/24 05:50:37;;;;;;;1.15;0.30;;;18.10;75.50;;;;;;5043499;28;45119;-78
2023/03/24 05:53:04;;;;;;;0.82;0.20;;;18.00;75.60;;;;;;5043622;28;45178;-77
2023/03/24 05:55:32;;;;;;;0.43;0.30;;;18.00;75.00;;;;;;5043524;28;45303;-77
2023/03/24 05:58:00;;;;;;;0.43;0.17;;;18.00;74.70;;;;;;5043074;28;45964;-78
2023/03/24 06:00:29;;;;;;;0.38;0.28;;;18.00;75.20;;;;;;5043272;28;45158;-78
2023/03/24 06:02:56;;;;;;;0.30;0.10;;;18.00;75.00;;;;;;5043582;28;45115;-78
2023/03/24 06:05:23;;;;;;;0.43;0.30;;;18.00;74.20;;;;;;5043219;28;48274;-79
2023/03/24 06:07:49;;;;;;;0.38;0.20;;;17.90;73.50;;;;;;5043358;28;45244;-80
2023/03/24 06:10:17;;;;;;;1.10;0.30;;;17.90;73.00;;;;;;5043276;28;45300;-80
2023/03/24 06:12:46;;;;;;;0.70;0.30;;;17.90;72.60;;;;;;5042955;28;45117;-80
2023/03/24 06:15:16;;;;;;;1.27;0.30;;;17.90;72.50;;;;;;5042701;28;46569;-80
2023/03/24 06:17:43;;;;;;;0.30;0.28;;;17.90;72.90;;;;;;5042859;28;45167;-79
2023/03/24 06:20:14;;;;;;;0.47;0.28;;;17.90;73.50;;;;;;5043589;28;45137;-80
2023/03/24 06:22:44;;;;;;;0.40;0.40;;;17.90;73.30;;;;;;5043032;28;45218;-80
2023/03/24 06:25:11;;;;;;;0.65;0.20;;;17.90;73.20;;;;;;5043075;28;45320;-81
2023/03/24 06:27:41;;;;;;;0.63;0.30;;;17.80;72.90;;;;;;5043106;28;45176;-78
2023/03/24 06:30:11;;;;;;;1.73;0.90;;;17.90;72.90;;;;;;5042906;28;45122;-79
2023/03/24 06:32:38;;;;;;;1.27;0.47;;;17.90;72.70;;;;;;5046045;28;45383;-79
2023/03/24 06:35:06;;;;;;;1.10;0.30;;;17.90;72.80;;;;;;5043243;28;46628;-79
2023/03/24 06:37:33;;;;;;;0.73;0.30;;;17.90;72.70;;;;;;5042586;28;45601;-79
2023/03/24 06:40:00;;;;;;;0.85;0.28;;;17.90;72.40;;;;;;5042960;28;45078;-79
2023/03/24 06:42:27;;;;;;;1.10;0.30;;;17.90;72.70;;;;;;5042854;28;45115;-79
2023/03/24 06:44:54;;;;;;;1.48;0.32;;;17.80;72.70;;;;;;5042566;28;45203;-79
2023/03/24 06:47:22;;;;;;;2.80;0.52;;;17.90;73.40;;;;;;5041956;28;45375;-79
2023/03/24 06:49:48;;;;;;;0.95;0.40;;;17.90;74.00;;;;;;5042974;28;45127;-79
2023/03/24 06:52:15;;;;;;;1.48;0.50;;;17.90;74.00;;;;;;5042590;28;45110;-79
2023/03/24 06:54:42;;;;;;;0.63;0.30;;;17.90;74.30;;;;;;5042221;28;48326;-79
2023/03/24 06:57:09;;;;;;;1.02;0.40;;;17.90;74.50;;;;;;5042298;28;45164;-80
2023/03/24 06:59:36;;;;;;;1.35;0.40;;;17.90;74.50;;;;;;5042938;28;45313;-79
2023/03/24 07:02:03;;;;;;;1.17;0.40;;;17.90;74.80;;;;;;5042690;28;45126;-79
2023/03/24 07:04:35;;;;;;;0.30;0.28;;;18.00;75.00;;;;;;5042188;28;46440;-79
2023/03/24 07:07:02;;;;;;;0.20;0.20;;;18.00;74.90;;;;;;5042445;28;46073;-79
2023/03/24 07:09:29;;;;;;;0.75;0.40;;;18.00;75.00;;;;;;5042396;28;45168;-79
2023/03/24 07:11:56;;;;;;;0.75;0.30;;;18.00;75.20;;;;;;5042550;28;45089;-79
2023/03/24 07:14:25;;;;;;;1.95;0.40;;;18.00;75.20;;;;;;5042424;28;47486;-79
2023/03/24 07:16:52;;;;;;;0.93;0.40;;;18.00;75.40;;;;;;5042349;28;45958;-79
2023/03/24 07:19:19;;;;;;;0.98;0.40;;;18.30;75.60;;;;;;5042456;28;45375;-79
2023/03/24 07:21:49;;;;;;;0.20;0.10;;;18.00;75.20;;;;;;5042339;28;45253;-79
2023/03/24 07:24:15;;;;;;;0.98;0.40;;;18.00;75.40;;;;;;5043371;28;47055;-79
2023/03/24 07:26:42;;;;;;;1.65;0.30;;;18.00;75.50;;;;;;5046744;28;45177;-79
2023/03/24 07:29:09;;;;;;;0.77;0.30;;;18.00;75.20;;;;;;5045184;28;45131;-78
2023/03/24 07:31:37;;;;;;;0.95;0.30;;;18.00;75.20;;;;;;5045279;28;45093;-78
2023/03/24 07:34:04;;;;;;;0.40;0.30;;;18.00;75.00;;;;;;5045173;28;46810;-80
2023/03/24 07:36:31;;;;;;;0.80;0.50;;;18.00;75.60;;;;;;5045108;28;45148;-79
2023/03/24 07:38:59;;;;;;;1.58;0.40;;;17.90;75.70;;;;;;5045497;28;45155;-79
2023/03/24 07:41:28;;;;;;;1.83;0.50;;;17.90;75.80;;;;;;5045115;28;45595;-79
2023/03/24 07:43:55;;;;;;;1.63;0.47;;;17.90;75.70;;;;;;5044794;28;48501;-79
2023/03/24 07:46:22;;;;;;;0.65;0.35;;;17.90;75.70;;;;;;5044862;28;45239;-79
2023/03/24 07:48:49;;;;;;;0.55;0.30;;;17.90;75.90;;;;;;5045059;28;45144;-79
2023/03/24 07:51:18;;;;;;;2.13;0.57;;;17.90;75.60;;;;;;5045233;28;45203;-81
2023/03/24 07:53:46;;;;;;;0.63;0.30;;;17.90;75.60;;;;;;5044945;28;47525;-79
2023/03/24 07:56:14;;;;;;;0.63;0.50;;;17.90;75.50;;;;;;5043519;28;45448;-80
2023/03/24 07:58:41;;;;;;;0.45;0.30;;;17.90;76.00;;;;;;5045103;28;45187;-80
2023/03/24 08:01:09;;;;;;;0.43;0.20;;;18.00;75.80;;;;;;5044905;28;45264;-80
2023/03/24 08:03:37;;;;;;;0.52;0.45;;;18.00;75.70;;;;;;5044502;28;48274;-81
2023/03/24 08:06:04;;;;;;;1.02;0.30;;;18.00;75.70;;;;;;5044932;28;45287;-80
2023/03/24 08:08:31;;;;;;;1.40;0.45;;;18.00;75.70;;;;;;5044610;28;45139;-80
2023/03/24 08:10:58;;;;;;;0.55;0.40;;;18.00;75.60;;;;;;5044646;28;45123;-80
2023/03/24 08:13:26;;;;;;;1.42;0.60;;;18.00;75.50;;;;;;5044706;28;45350;-81
2023/03/24 08:15:53;;;;;;;0.55;0.30;;;18.00;75.50;;;;;;5046426;28;45210;-80
2023/03/24 08:18:21;;;;;;;0.40;0.20;;;18.00;75.40;;;;;;5046801;28;45156;-80
2023/03/24 08:20:48;;;;;;;0.30;0.20;;;18.00;75.30;;;;;;5044670;28;45578;-80
2023/03/24 08:23:15;;;;;;;0.35;0.30;;;18.00;75.40;;;;;;5044783;28;45372;-80
2023/03/24 08:25:42;;;;;;;0.55;0.32;;;18.00;75.30;;;;;;5044376;28;45308;-81
2023/03/24 08:28:08;;;;;;;1.15;0.45;;;17.90;75.30;;;;;;5044678;28;45311;-80
2023/03/24 08:30:37;;;;;;;0.47;0.30;;;18.00;75.20;;;;;;5044399;28;45439;-80
2023/03/24 08:33:04;;;;;;;0.63;0.38;;;18.00;75.00;;;;;;5044361;28;47291;-81
2023/03/24 08:35:33;;;;;;;0.90;0.30;;;18.00;74.80;;;;;;5044185;28;45381;-81
2023/03/24 08:38:01;;;;;;;2.28;0.47;;;18.00;74.70;;;;;;5044528;28;45229;-80
2023/03/24 08:40:30;;;;;;;0.70;0.30;;;18.00;74.80;;;;;;5044382;28;45468;-81
2023/03/24 08:42:59;;;;;;;1.27;0.40;;;18.00;74.50;;;;;;5044232;28;45401;-80
2023/03/24 08:45:29;;;;;;;2.47;0.40;;;18.00;74.50;;;;;;5044299;28;45230;-81
2023/03/24 08:48:00;;;;;;;2.88;0.70;;;17.90;74.50;;;;;;5043880;28;45287;-80
2023/03/24 08:50:29;;;;;;;0.45;0.40;;;18.00;74.40;;;;;;5044344;28;45301;-80
2023/03/24 08:52:57;;;;;;;0.45;0.20;;;18.00;74.20;;;;;;5044130;28;47320;-80
2023/03/24 08:55:25;;;;;;;0.75;0.40;;;18.00;74.20;;;;;;5044660;28;45285;-80
2023/03/24 08:57:52;;;;;;;3.28;0.70;;;18.00;74.20;;;;;;5044666;28;45214;-80
2023/03/24 09:00:21;;;;;;;1.50;0.70;;;18.00;74.00;;;;;;5044141;28;45218;-80
2023/03/24 09:02:50;;;;;;;1.35;0.40;;;18.00;74.00;;;;;;5044026;28;46575;-81
2023/03/24 09:05:19;;;;;;;3.70;0.65;;;18.00;73.90;;;;;;5044150;28;45206;-80
2023/03/24 09:07:47;;;;;;;0.43;0.35;;;18.00;73.60;;;;;;5047147;28;45180;-81
2023/03/24 09:10:15;;;;;;;2.72;0.60;;;18.00;73.60;;;;;;5044489;28;45135;-80
2023/03/24 09:12:42;;;;;;;1.52;0.52;;;18.00;73.70;;;;;;5043519;28;45245;-80
2023/03/24 09:15:12;;;;;;;43.60;3.50;;;18.00;73.60;;;;;;5039338;28;45252;-73
2023/03/24 09:17:39;;;;;;;5.45;1.17;;;18.00;74.80;;;;;;5044045;28;45161;-80
2023/03/24 09:20:10;;;;;;;3.53;0.80;;;18.10;74.60;;;;;;5044257;28;45116;-79
2023/03/24 09:22:38;;;;;;;3.28;0.73;;;18.00;74.00;;;;;;5043993;28;46347;-80
2023/03/24 09:25:06;;;;;;;3.08;0.70;;;18.00;74.00;;;;;;5044063;28;45213;-80
2023/03/24 09:27:33;;;;;;;6.55;0.50;;;18.00;74.30;;;;;;5044124;28;45114;-79
2023/03/24 09:30:00;;;;;;;2.17;0.88;;;18.00;74.10;;;;;;5044173;28;45335;-80
2023/03/24 09:32:27;;;;;;;1.95;0.60;;;18.00;74.10;;;;;;5043758;28;47454;-80
2023/03/24 09:34:54;;;;;;;5.03;0.80;;;18.00;73.90;;;;;;5043507;28;45176;-79
2023/03/24 09:37:21;;;;;;;1.17;0.63;;;18.00;74.20;;;;;;5043821;28;45129;-80
2023/03/24 09:39:49;;;;;;;3.47;0.73;;;18.00;74.00;;;;;;5043513;28;45140;-80
2023/03/24 09:42:22;;;;;;;3.42;0.70;;;18.00;73.80;;;;;;5043929;28;47322;-80
2023/03/24 09:44:54;;;;;;;2.20;0.70;;;18.60;74.20;;;;;;5043642;28;45317;-79
2023/03/24 09:47:28;;;;;;;1.52;0.52;;;18.00;73.50;;;;;;5042856;28;45285;-80
2023/03/24 09:49:57;;;;;;;2.60;0.50;;;18.00;73.40;;;;;;5043142;28;45201;-80
2023/03/24 09:52:29;;;;;;;2.15;0.52;;;18.60;73.90;;;;;;5043436;28;45260;-80
2023/03/24 09:55:01;;;;;;;2.33;0.50;;;18.10;73.40;;;;;;5043752;28;45145;-80
2023/03/24 09:57:35;;;;;;;1.25;0.65;;;18.10;73.30;;;;;;5043690;28;45305;-80
2023/03/24 10:00:03;;;;;;;2.08;0.65;;;18.10;73.00;;;;;;5046957;28;45293;-80
2023/03/24 10:02:30;;;;;;;2.17;0.93;;;18.10;73.10;;;;;;5043177;28;48578;-80
2023/03/24 10:04:58;;;;;;;1.30;0.65;;;18.10;72.80;;;;;;5043196;28;45267;-80
2023/03/24 10:07:32;;;;;;;2.33;0.60;;;18.10;72.90;;;;;;5043194;28;45332;-80
2023/03/24 10:10:02;;;;;;;1.55;0.32;;;18.10;73.90;;;;;;5043473;28;45108;-80
2023/03/24 10:12:35;;;;;;;0.70;0.43;;;18.10;72.70;;;;;;5043111;28;45656;-80
2023/03/24 10:15:14;;;;;;;0.65;0.40;;;18.20;72.60;;;;;;5043024;28;45238;-81
2023/03/24 10:17:51;;;;;;;3.20;0.70;;;18.10;72.30;;;;;;5043293;28;45221;-80
2023/03/24 10:20:30;;;;;;;2.00;0.60;;;18.10;72.30;;;;;;5043536;28;45654;-80
2023/03/24 10:23:03;;;;;;;1.20;0.50;;;18.10;72.20;;;;;;5042994;28;48184;-80
2023/03/24 10:25:42;;;;;;;1.85;0.68;;;18.10;72.20;;;;;;5043142;28;45275;-80
2023/03/24 10:28:16;;;;;;;1.30;0.57;;;18.20;72.30;;;;;;5043289;28;45157;-80
2023/03/24 10:30:44;;;;;;;1.80;0.40;;;18.20;72.00;;;;;;5042843;28;45282;-80
2023/03/24 10:33:12;;;;;;;1.38;0.45;;;18.20;71.80;;;;;;5042597;28;47294;-81
2023/03/24 10:35:42;;;;;;;1.17;0.50;;;18.20;71.50;;;;;;5042911;28;45182;-80
2023/03/24 10:38:16;;;;;;;3.33;0.60;;;18.20;71.50;;;;;;5043082;28;45414;-80
2023/03/24 10:40:46;;;;;;;2.50;0.63;;;18.20;71.50;;;;;;5040217;28;45303;-80
2023/03/24 10:43:14;;;;;;;0.70;0.40;;;18.20;71.00;;;;;;5042554;28;46904;-80
2023/03/24 10:45:43;;;;;;;1.70;0.50;;;18.20;71.00;;;;;;5042894;28;45129;-80
2023/03/24 10:48:13;;;;;;;0.60;0.38;;;18.20;71.00;;;;;;5042504;28;45127;-81
2023/03/24 10:50:43;;;;;;;2.58;0.60;;;18.20;70.90;;;;;;5045679;28;45329;-81
2023/03/24 10:53:17;;;;;;;3.13;0.90;;;18.20;70.10;;;;;;5043012;28;46766;-78
2023/03/24 10:55:46;;;;;;;1.58;0.50;;;18.20;70.90;;;;;;5042630;28;45648;-79
2023/03/24 10:58:19;;;;;;;1.20;0.52;;;18.10;70.70;;;;;;5042762;28;45116;-80
2023/03/24 11:00:47;;;;;;;1.63;0.45;;;18.10;70.80;;;;;;5045496;28;45468;-79
2023/03/24 11:03:17;;;;;;;2.60;0.80;;;18.10;71.70;;;;;;5044442;28;46626;-80
2023/03/24 11:05:45;;;;;;;1.63;0.50;;;18.10;72.30;;;;;;5045422;28;45206;-81
2023/03/24 11:08:21;;;;;;;1.83;0.60;;;18.10;72.00;;;;;;5045344;28;45077;-79
2023/03/24 11:10:49;;;;;;;0.98;0.40;;;18.00;71.90;;;;;;5045302;28;45315;-80
2023/03/24 11:13:18;;;;;;;3.10;0.65;;;18.00;72.10;;;;;;5045902;28;47059;-80
2023/03/24 11:15:57;;;;;;;1.48;0.50;;;18.00;72.20;;;;;;5045307;28;45105;-79
2023/03/24 11:18:24;;;;;;;0.88;0.38;;;18.00;72.60;;;;;;5045686;28;45119;-81
2023/03/24 11:20:56;;;;;;;1.05;0.47;;;18.00;72.40;;;;;;5045877;28;45226;-82
2023/03/24 11:23:29;;;;;;;1.13;0.50;;;18.30;72.40;;;;;;5045313;28;48742;-81
2023/03/24 11:26:08;;;;;;;1.17;0.50;;;18.00;72.00;;;;;;5045818;28;45254;-81
2023/03/24 11:28:41;;;;;;;2.05;0.40;;;18.00;71.80;;;;;;5045382;28;45295;-80
2023/03/24 11:31:10;;;;;;;1.17;0.50;;;18.10;71.90;;;;;;5045337;27;45225;-82
2023/03/24 11:33:44;;;;;;;1.80;0.60;;;18.00;71.90;;;;;;5045386;28;46990;-81
2023/03/24 11:36:41;;;;;;;1.85;0.52;;;18.00;71.80;;;;;;5045374;28;45362;-82
2023/03/24 11:39:13;;;;;;;1.70;0.65;;;18.00;71.70;;;;;;5045230;28;45307;-82
2023/03/24 11:41:44;;;;;;;0.85;0.50;;;18.00;71.60;;;;;;5047937;28;45396;-82
2023/03/24 11:44:20;;;;;;;1.05;0.50;;;18.60;72.30;;;;;;5045792;28;47840;-81
2023/03/24 11:46:50;;;;;;;1.50;0.40;;;18.00;71.80;;;;;;5045332;28;45222;-81
2023/03/24 11:49:21;;;;;;;0.68;0.40;;;18.00;71.80;;;;;;5044950;28;45203;-81
2023/03/24 11:51:51;;;;;;;3.10;0.60;;;18.00;71.70;;;;;;5045504;28;45150;-81
2023/03/24 11:54:22;;;;;;;0.88;0.45;;;18.00;71.30;;;;;;5045474;28;47055;-81
2023/03/24 11:56:52;;;;;;;2.90;0.50;;;18.00;71.60;;;;;;5044923;28;45150;-81
2023/03/24 11:59:29;;;;;;;1.80;0.50;;;18.00;71.30;;;;;;5044694;28;45222;-82
2023/03/24 12:02:02;;;;;;;2.20;0.40;;;18.00;71.10;;;;;;5045244;28;45473;-80
2023/03/24 12:04:39;;;;;;;4.97;1.13;;;18.00;71.20;;;;;;5044949;28;47971;-73
2023/03/24 12:07:36;;;;;;;3.45;0.82;;;18.10;72.10;;;;;;5043924;28;45432;-76
2023/03/24 12:10:11;;;;;;;5.85;1.00;;;18.20;74.10;;;;;;5043078;28;45293;-72
2023/03/24 12:12:48;;;;;;;8.38;0.88;;;18.20;75.60;;;;;;5040064;28;45330;-68
2023/03/24 12:15:29;;;;;;;4.85;0.57;;;18.20;77.50;;;;;;5075118;27;46394;-70
2023/03/24 12:18:09;;;;;;;6.28;1.10;;;18.20;76.60;;;;;;5025367;28;45268;-72
2023/03/24 12:20:39;;;;;;;7.38;1.15;;;18.20;79.30;;;;;;5071265;27;45427;-74
2023/03/24 12:23:13;;;;;;;15.98;1.70;;;18.10;79.60;;;;;;5041073;28;45415;-69
2023/03/24 12:25:48;;;;;;;10.95;1.20;;;18.10;80.80;;;;;;5036041;28;45413;-70
2023/03/24 12:28:35;;;;;;;5.50;1.10;;;18.10;77.70;;;;;;5106361;27;45366;-69
2023/03/24 12:31:14;;;;;;;17.85;2.83;;;18.10;76.60;;;;;;5026582;28;45353;-71
2023/03/24 12:33:52;;;;;;;17.88;1.73;;;18.10;79.20;;;;;;5031345;27;45628;-68
2023/03/24 12:36:36;;;;;;;12.18;1.92;;;18.00;80.40;;;;;;5038749;27;46470;-69
2023/03/24 12:39:09;;;;;;;13.50;1.50;;;18.00;80.50;;;;;;5037403;27;45375;-69
2023/03/24 12:41:57;;;;;;;7.45;1.30;;;18.00;79.10;;;;;;5037903;28;45552;-67
2023/03/24 12:44:53;;;;;;;10.00;1.58;;;18.00;79.10;;;;;;5046223;27;45577;-69
2023/03/24 12:47:32;;;;;;;8.35;1.10;;;18.00;80.10;;;;;;5038604;27;47602;-69
2023/03/24 12:50:18;;;;;;;5.15;0.85;;;17.90;79.00;;;;;;5051465;27;45492;-69
2023/03/24 12:53:00;;;;;;;6.95;0.95;;;17.90;79.20;;;;;;5036181;28;45251;-69
2023/03/24 12:55:34;;;;;;;3.50;0.70;;;17.90;79.20;;;;;;5082821;27;45413;-69
2023/03/24 12:58:05;;;;;;;7.90;1.17;;;17.90;79.30;;;;;;5123196;27;46909;-70
2023/03/24 13:00:38;;;;;;;5.68;0.73;;;17.90;79.50;;;;;;5033612;27;45467;-70
2023/03/24 13:03:09;;;;;;;4.93;0.80;;;17.90;79.70;;;;;;5034752;27;45356;-65
2023/03/24 13:05:41;;;;;;;3.15;0.70;;;17.90;79.40;;;;;;5087952;27;45244;-69